sensor_id;sensor_type;location;lat;lon;timestamp;pressure;altitude;pressure_sealevel;temperature;humidity
38253;BME280;24785;52.372;20.672;2023-03-11T00:01:13;97878.69;;;6.76;100.00
38253;BME280;24785;52.372;20.672;2023-03-11T00:11:13;97875.38;;;6.71;100.00
38253;BME280;24785;52.372;20.672;2023-03-11T00:21:16;97865.63;;;6.57;100.00
38253;BME280;24785;52.372;20.672;2023-03-11T00:31:18;97860.41;;;6.35;100.00
38253;BME280;24785;52.372;20.672;2023-03-11T00:41:19;97846.84;;;6.14;100.00
38253;BME280;24785;52.372;20.672;2023-03-11T00:51:20;97851.63;;;5.95;100.00
38253;BME280;24785;52.372;20.672;2023-03-11T01:01:21;97828.19;;;5.75;100.00
38253;BME280;24785;52.372;20.672;2023-03-11T01:11:22;97818.19;;;5.49;100.00
38253;BME280;24785;52.372;20.672;2023-03-11T01:21:23;97823.81;;;5.25;100.00
38253;BME280;24785;52.372;20.672;2023-03-11T01:31:24;97822.88;;;5.07;100.00
38253;BME280;24785;52.372;20.672;2023-03-11T01:41:25;97811.66;;;4.88;100.00
38253;BME280;24785;52.372;20.672;2023-03-11T01:51:30;97815.69;;;4.72;100.00
38253;BME280;24785;52.372;20.672;2023-03-11T02:01:33;97811.50;;;4.57;100.00
38253;BME280;24785;52.372;20.672;2023-03-11T02:11:34;97813.22;;;4.26;100.00
38253;BME280;24785;52.372;20.672;2023-03-11T02:21:35;97794.38;;;4.00;100.00
38253;BME280;24785;52.372;20.672;2023-03-11T02:31:38;97795.53;;;3.80;100.00
38253;BME280;24785;52.372;20.672;2023-03-11T02:41:43;97806.97;;;3.62;100.00
38253;BME280;24785;52.372;20.672;2023-03-11T02:51:45;97788.41;;;3.48;100.00
38253;BME280;24785;52.372;20.672;2023-03-11T03:01:46;97771.44;;;3.49;100.00
38253;BME280;24785;52.372;20.672;2023-03-11T03:11:47;97761.84;;;3.53;100.00
38253;BME280;24785;52.372;20.672;2023-03-11T03:21:48;97779.22;;;3.73;100.00
38253;BME280;24785;52.372;20.672;2023-03-11T03:31:49;97768.66;;;4.00;100.00
38253;BME280;24785;52.372;20.672;2023-03-11T03:41:50;97771.19;;;4.19;100.00
38253;BME280;24785;52.372;20.672;2023-03-11T03:51:51;97763.94;;;4.11;100.00
38253;BME280;24785;52.372;20.672;2023-03-11T04:01:51;97768.94;;;3.99;100.00
38253;BME280;24785;52.372;20.672;2023-03-11T04:11:52;97754.63;;;4.00;100.00
38253;BME280;24785;52.372;20.672;2023-03-11T04:21:53;97748.34;;;3.96;100.00
38253;BME280;24785;52.372;20.672;2023-03-11T04:31:54;97751.69;;;3.88;100.00
38253;BME280;24785;52.372;20.672;2023-03-11T04:41:55;97749.44;;;3.95;100.00
38253;BME280;24785;52.372;20.672;2023-03-11T04:51:56;97744.31;;;4.12;100.00
38253;BME280;24785;52.372;20.672;2023-03-11T05:01:57;97758.84;;;4.28;100.00
38253;BME280;24785;52.372;20.672;2023-03-11T05:11:58;97751.44;;;4.39;100.00
38253;BME280;24785;52.372;20.672;2023-03-11T05:22:01;97748.03;;;4.61;100.00
38253;BME280;24785;52.372;20.672;2023-03-11T05:32:02;97739.84;;;4.71;100.00
38253;BME280;24785;52.372;20.672;2023-03-11T05:42:04;97750.25;;;5.03;100.00
38253;BME280;24785;52.372;20.672;2023-03-11T05:52:05;97749.25;;;5.44;100.00
38253;BME280;24785;52.372;20.672;2023-03-11T06:02:06;97767.25;;;5.78;100.00
38253;BME280;24785;52.372;20.672;2023-03-11T06:12:07;97782.94;;;6.37;100.00
38253;BME280;24785;52.372;20.672;2023-03-11T06:22:08;97793.19;;;6.69;100.00
38253;BME280;24785;52.372;20.672;2023-03-11T06:32:09;97808.53;;;6.89;100.00
38253;BME280;24785;52.372;20.672;2023-03-11T06:42:10;97813.53;;;7.08;100.00
38253;BME280;24785;52.372;20.672;2023-03-11T06:52:11;97810.56;;;7.36;100.00
38253;BME280;24785;52.372;20.672;2023-03-11T07:02:13;97809.34;;;7.16;100.00
38253;BME280;24785;52.372;20.672;2023-03-11T07:12:14;97819.53;;;7.14;100.00
38253;BME280;24785;52.372;20.672;2023-03-11T07:22:15;97839.69;;;6.72;100.00
38253;BME280;24785;52.372;20.672;2023-03-11T07:32:16;97853.16;;;6.75;100.00
38253;BME280;24785;52.372;20.672;2023-03-11T07:42:17;97858.63;;;6.70;100.00
38253;BME280;24785;52.372;20.672;2023-03-11T07:52:18;97866.63;;;6.70;100.00
38253;BME280;24785;52.372;20.672;2023-03-11T08:02:19;97858.06;;;6.42;100.00
38253;BME280;24785;52.372;20.672;2023-03-11T08:12:20;97869.47;;;6.03;100.00
38253;BME280;24785;52.372;20.672;2023-03-11T08:22:21;97891.78;;;5.93;100.00
38253;BME280;24785;52.372;20.672;2023-03-11T08:32:22;97915.38;;;5.50;100.00
38253;BME280;24785;52.372;20.672;2023-03-11T08:42:23;97937.22;;;5.47;100.00
38253;BME280;24785;52.372;20.672;2023-03-11T08:52:24;97974.06;;;3.98;100.00
38253;BME280;24785;52.372;20.672;2023-03-11T09:02:25;98001.81;;;3.25;100.00
38253;BME280;24785;52.372;20.672;2023-03-11T09:12:27;98036.50;;;3.05;100.00
38253;BME280;24785;52.372;20.672;2023-03-11T09:22:28;98054.69;;;2.59;100.00
38253;BME280;24785;52.372;20.672;2023-03-11T09:32:29;98110.13;;;2.35;100.00
38253;BME280;24785;52.372;20.672;2023-03-11T09:42:44;98129.75;;;2.24;100.00
38253;BME280;24785;52.372;20.672;2023-03-11T09:53:01;98173.47;;;2.06;100.00
38253;BME280;24785;52.372;20.672;2023-03-11T10:03:05;98181.72;;;1.89;100.00
38253;BME280;24785;52.372;20.672;2023-03-11T10:13:39;98215.81;;;1.80;100.00
38253;BME280;24785;52.372;20.672;2023-03-11T10:24:12;98237.00;;;1.65;100.00
38253;BME280;24785;52.372;20.672;2023-03-11T10:34:33;98269.25;;;1.47;100.00
38253;BME280;24785;52.372;20.672;2023-03-11T10:44:39;98298.00;;;1.28;100.00
38253;BME280;24785;52.372;20.672;2023-03-11T10:54:43;98328.63;;;1.19;100.00
38253;BME280;24785;52.372;20.672;2023-03-11T11:04:45;98353.94;;;1.05;100.00
38253;BME280;24785;52.372;20.672;2023-03-11T11:14:48;98352.09;;;1.15;100.00
38253;BME280;24785;52.372;20.672;2023-03-11T11:24:53;98365.53;;;1.09;100.00
38253;BME280;24785;52.372;20.672;2023-03-11T11:35:00;98379.97;;;0.81;100.00
38253;BME280;24785;52.372;20.672;2023-03-11T11:45:10;98425.31;;;0.78;100.00
38253;BME280;24785;52.372;20.672;2023-03-11T11:55:19;98452.09;;;0.54;100.00
38253;BME280;24785;52.372;20.672;2023-03-11T12:05:31;98454.75;;;0.54;100.00
38253;BME280;24785;52.372;20.672;2023-03-11T12:26:23;98524.94;;;-0.30;100.00
38253;BME280;24785;52.372;20.672;2023-03-11T12:36:31;98561.06;;;-0.48;100.00
38253;BME280;24785;52.372;20.672;2023-03-11T12:46:59;98577.06;;;-0.54;100.00
38253;BME280;24785;52.372;20.672;2023-03-11T12:57:27;98610.22;;;-0.53;100.00
38253;BME280;24785;52.372;20.672;2023-03-11T13:07:36;98645.41;;;-0.59;100.00
38253;BME280;24785;52.372;20.672;2023-03-11T13:17:40;98676.41;;;-0.61;100.00
38253;BME280;24785;52.372;20.672;2023-03-11T13:27:42;98696.66;;;-0.62;100.00
38253;BME280;24785;52.372;20.672;2023-03-11T13:48:29;98789.06;;;-0.58;100.00
38253;BME280;24785;52.372;20.672;2023-03-11T13:58:31;98804.13;;;-0.54;100.00
38253;BME280;24785;52.372;20.672;2023-03-11T14:08:34;98843.44;;;-0.47;100.00
38253;BME280;24785;52.372;20.672;2023-03-11T14:18:47;98856.59;;;-0.30;100.00
38253;BME280;24785;52.372;20.672;2023-03-11T14:28:51;98875.47;;;-0.17;100.00
38253;BME280;24785;52.372;20.672;2023-03-11T14:38:53;98885.13;;;-0.06;100.00
38253;BME280;24785;52.372;20.672;2023-03-11T14:48:56;98918.31;;;-0.05;100.00
38253;BME280;24785;52.372;20.672;2023-03-11T15:09:14;98975.13;;;-0.09;99.76
38253;BME280;24785;52.372;20.672;2023-03-11T15:19:30;98994.03;;;-0.12;98.46
38253;BME280;24785;52.372;20.672;2023-03-11T15:29:32;99013.25;;;-0.11;100.00
38253;BME280;24785;52.372;20.672;2023-03-11T15:49:35;99038.63;;;-0.05;92.75
38253;BME280;24785;52.372;20.672;2023-03-11T15:59:36;99063.28;;;-0.11;94.16
38253;BME280;24785;52.372;20.672;2023-03-11T16:09:38;99108.81;;;-0.27;95.38
38253;BME280;24785;52.372;20.672;2023-03-11T16:19:43;99133.13;;;-0.49;100.00
38253;BME280;24785;52.372;20.672;2023-03-11T16:29:44;99166.19;;;-0.53;100.00
38253;BME280;24785;52.372;20.672;2023-03-11T16:39:46;99183.47;;;-0.57;100.00
38253;BME280;24785;52.372;20.672;2023-03-11T16:49:48;99195.13;;;-0.53;100.00
38253;BME280;24785;52.372;20.672;2023-03-11T16:59:53;99214.69;;;-0.49;100.00
38253;BME280;24785;52.372;20.672;2023-03-11T17:09:54;99232.22;;;-0.54;100.00
38253;BME280;24785;52.372;20.672;2023-03-11T17:19:55;99250.53;;;-0.71;100.00
38253;BME280;24785;52.372;20.672;2023-03-11T17:29:55;99274.88;;;-0.76;100.00
38253;BME280;24785;52.372;20.672;2023-03-11T17:39:56;99285.53;;;-0.71;100.00
38253;BME280;24785;52.372;20.672;2023-03-11T17:49:57;99300.63;;;-0.66;98.60
38253;BME280;24785;52.372;20.672;2023-03-11T17:59:58;99326.00;;;-0.72;95.38
38253;BME280;24785;52.372;20.672;2023-03-11T18:10:05;99348.53;;;-0.76;93.92
38253;BME280;24785;52.372;20.672;2023-03-11T18:20:06;99369.00;;;-0.78;93.48
38253;BME280;24785;52.372;20.672;2023-03-11T18:30:08;99366.47;;;-0.84;92.83
38253;BME280;24785;52.372;20.672;2023-03-11T18:40:11;99399.28;;;-0.87;92.53
38253;BME280;24785;52.372;20.672;2023-03-11T18:50:12;99416.91;;;-0.87;91.11
38253;BME280;24785;52.372;20.672;2023-03-11T19:00:14;99440.84;;;-0.96;92.16
38253;BME280;24785;52.372;20.672;2023-03-11T19:10:20;99450.97;;;-1.11;93.24
38253;BME280;24785;52.372;20.672;2023-03-11T19:20:21;99462.59;;;-1.18;93.53
38253;BME280;24785;52.372;20.672;2023-03-11T19:30:23;99480.63;;;-1.22;93.71
38253;BME280;24785;52.372;20.672;2023-03-11T19:40:24;99499.47;;;-1.25;94.15
38253;BME280;24785;52.372;20.672;2023-03-11T19:50:29;99499.25;;;-1.42;95.58
38253;BME280;24785;52.372;20.672;2023-03-11T20:00:30;99524.44;;;-1.34;96.36
38253;BME280;24785;52.372;20.672;2023-03-11T20:10:32;99519.66;;;-1.44;96.82
38253;BME280;24785;52.372;20.672;2023-03-11T20:20:36;99534.00;;;-1.40;95.99
38253;BME280;24785;52.372;20.672;2023-03-11T20:30:38;99546.75;;;-1.43;96.53
38253;BME280;24785;52.372;20.672;2023-03-11T20:40:39;99543.06;;;-1.36;96.58
38253;BME280;24785;52.372;20.672;2023-03-11T20:50:39;99562.69;;;-1.38;98.56
38253;BME280;24785;52.372;20.672;2023-03-11T21:00:40;99560.94;;;-1.26;99.41
38253;BME280;24785;52.372;20.672;2023-03-11T21:10:41;99575.63;;;-1.37;100.00
38253;BME280;24785;52.372;20.672;2023-03-11T21:20:42;99591.25;;;-1.48;100.00
38253;BME280;24785;52.372;20.672;2023-03-11T21:30:43;99599.03;;;-1.35;100.00
38253;BME280;24785;52.372;20.672;2023-03-11T21:40:44;99610.47;;;-1.23;100.00
38253;BME280;24785;52.372;20.672;2023-03-11T21:50:45;99605.47;;;-1.31;100.00
38253;BME280;24785;52.372;20.672;2023-03-11T22:00:48;99606.34;;;-1.37;100.00
38253;BME280;24785;52.372;20.672;2023-03-11T22:10:49;99627.19;;;-1.42;100.00
38253;BME280;24785;52.372;20.672;2023-03-11T22:20:50;99628.38;;;-1.38;100.00
38253;BME280;24785;52.372;20.672;2023-03-11T22:30:51;99642.78;;;-1.47;100.00
38253;BME280;24785;52.372;20.672;2023-03-11T22:40:52;99646.00;;;-1.45;100.00
38253;BME280;24785;52.372;20.672;2023-03-11T22:50:53;99654.09;;;-1.40;100.00
38253;BME280;24785;52.372;20.672;2023-03-11T23:00:54;99647.94;;;-1.59;100.00
38253;BME280;24785;52.372;20.672;2023-03-11T23:10:59;99667.81;;;-1.70;100.00
38253;BME280;24785;52.372;20.672;2023-03-11T23:21:00;99658.59;;;-1.79;100.00
38253;BME280;24785;52.372;20.672;2023-03-11T23:31:03;99672.78;;;-1.93;100.00
38253;BME280;24785;52.372;20.672;2023-03-11T23:41:06;99657.25;;;-1.95;100.00
38253;BME280;24785;52.372;20.672;2023-03-11T23:51:07;99668.97;;;-1.97;100.00
